createdAt,value
2023-01-15T00:00:07.465Z,92
2023-01-15T00:01:14.569Z,92
2023-01-15T00:02:21.164Z,92
2023-01-15T00:03:28.242Z,92
2023-01-15T00:04:35.427Z,92
2023-01-15T00:05:42.408Z,92
2023-01-15T00:06:49.546Z,92
2023-01-15T00:07:56.149Z,92
2023-01-15T00:09:03.419Z,92
2023-01-15T00:11:17.531Z,92
2023-01-15T00:12:24.585Z,92
2023-01-15T00:13:31.136Z,92
2023-01-15T00:14:38.391Z,92
2023-01-15T00:15:45.436Z,92
2023-01-15T00:16:52.513Z,92
2023-01-15T00:17:59.562Z,92
2023-01-15T00:19:06.241Z,92
2023-01-15T00:20:13.284Z,92
2023-01-15T00:21:20.352Z,92
2023-01-15T00:22:27.490Z,92
2023-01-15T00:23:34.610Z,92
2023-01-15T00:24:41.758Z,92
2023-01-15T00:25:48.348Z,92
2023-01-15T00:26:55.358Z,92
2023-01-15T00:28:02.535Z,92
2023-01-15T00:30:16.300Z,92
2023-01-15T00:31:23.392Z,92
2023-01-15T00:32:30.405Z,92
2023-01-15T00:33:37.528Z,92
2023-01-15T00:34:44.633Z,92
2023-01-15T00:35:51.163Z,92
2023-01-15T00:36:58.348Z,92
2023-01-15T00:38:05.386Z,92
2023-01-15T00:39:12.450Z,93
2023-01-15T00:40:21.572Z,93
2023-01-15T00:41:26.210Z,96
2023-01-15T00:42:33.247Z,98
2023-01-15T00:44:47.545Z,98
2023-01-15T00:45:54.617Z,98
2023-01-15T00:47:01.221Z,98
2023-01-15T00:48:08.327Z,98
2023-01-15T00:49:15.414Z,98
2023-01-15T00:50:22.506Z,97
2023-01-15T00:51:29.611Z,96
2023-01-15T00:52:36.281Z,96
2023-01-15T00:53:43.315Z,97
2023-01-15T00:54:50.413Z,96
2023-01-15T00:55:57.597Z,96
2023-01-15T00:57:04.653Z,92
2023-01-15T00:58:11.197Z,92
2023-01-15T00:59:18.334Z,93
2023-01-15T01:00:25.402Z,93
2023-01-15T01:01:32.682Z,96
2023-01-15T01:02:39.705Z,93
2023-01-15T01:03:46.244Z,96
2023-01-15T01:04:53.333Z,93
2023-01-15T01:06:00.449Z,92
2023-01-15T01:07:07.588Z,92
2023-01-15T01:08:14.659Z,92
2023-01-15T01:09:21.223Z,92
2023-01-15T01:10:28.310Z,92
2023-01-15T01:11:35.539Z,92
2023-01-15T01:12:42.493Z,92
2023-01-15T01:14:56.273Z,92
2023-01-15T01:16:03.388Z,92
2023-01-15T01:17:10.527Z,92
2023-01-15T01:18:17.616Z,92
2023-01-15T01:19:24.137Z,92
2023-01-15T01:20:31.769Z,91
2023-01-15T01:21:38.298Z,91
2023-01-15T01:22:45.490Z,91
2023-01-15T01:23:52.570Z,91
2023-01-15T01:24:59.151Z,91
2023-01-15T01:26:06.242Z,91
2023-01-15T01:27:13.451Z,91
2023-01-15T01:28:20.477Z,91
2023-01-15T01:29:27.564Z,91
2023-01-15T01:30:34.187Z,91
2023-01-15T01:31:41.358Z,90
2023-01-15T01:32:48.929Z,90
2023-01-15T01:33:55.489Z,90
2023-01-15T01:35:02.581Z,90
2023-01-15T01:36:09.186Z,90
2023-01-15T01:37:16.239Z,90
2023-01-15T01:38:23.321Z,90
2023-01-15T01:39:30.438Z,90
2023-01-15T01:40:37.607Z,90
2023-01-15T01:41:44.198Z,90
2023-01-15T01:42:51.345Z,90
2023-01-15T01:43:58.554Z,90
2023-01-15T01:45:05.520Z,90
2023-01-15T01:46:12.597Z,90
2023-01-15T01:47:19.213Z,90
2023-01-15T01:48:26.272Z,90
2023-01-15T01:49:33.388Z,89
2023-01-15T01:50:40.491Z,88
2023-01-15T01:52:54.281Z,88
2023-01-15T01:54:01.281Z,88
2023-01-15T01:55:08.368Z,88
2023-01-15T01:56:15.531Z,88
2023-01-15T01:57:22.689Z,88
2023-01-15T01:58:29.412Z,88
2023-01-15T01:59:36.324Z,88
2023-01-15T02:00:43.455Z,88
2023-01-15T02:01:50.671Z,87
2023-01-15T02:02:57.643Z,87
2023-01-15T02:04:04.241Z,87
2023-01-15T02:05:11.311Z,87
2023-01-15T02:06:18.445Z,87
2023-01-15T02:07:25.609Z,87
2023-01-15T02:08:32.597Z,87
2023-01-15T02:09:39.255Z,87
2023-01-15T02:10:46.306Z,87
2023-01-15T02:13:00.522Z,87
2023-01-15T02:14:07.633Z,87
2023-01-15T02:15:14.243Z,87
2023-01-15T02:16:21.323Z,87
2023-01-15T02:17:28.462Z,87
2023-01-15T02:18:35.523Z,87
2023-01-15T02:19:42.654Z,86
2023-01-15T02:20:49.279Z,86
2023-01-15T02:21:56.382Z,86
2023-01-15T02:23:03.433Z,86
2023-01-15T02:24:10.513Z,86
2023-01-15T02:25:17.662Z,86
2023-01-15T02:26:24.260Z,86
2023-01-15T02:27:31.331Z,86
2023-01-15T02:28:38.484Z,86
2023-01-15T02:29:45.572Z,86
2023-01-15T02:30:52.667Z,86
2023-01-15T02:31:59.426Z,86
2023-01-15T02:34:13.453Z,86
2023-01-15T02:35:20.500Z,86
2023-01-15T02:36:27.637Z,86
2023-01-15T02:37:34.270Z,86
2023-01-15T02:38:41.349Z,86
2023-01-15T02:39:48.436Z,86
2023-01-15T02:40:55.540Z,86
2023-01-15T02:42:02.705Z,86
2023-01-15T02:43:09.306Z,86
2023-01-15T02:44:16.438Z,86
2023-01-15T02:45:23.463Z,86
2023-01-15T02:46:30.519Z,86
2023-01-15T02:47:37.249Z,86
2023-01-15T02:48:44.791Z,85
2023-01-15T02:49:51.358Z,85
2023-01-15T02:50:58.453Z,85
2023-01-15T02:52:05.624Z,85
2023-01-15T02:53:12.170Z,85
2023-01-15T02:54:19.303Z,85
2023-01-15T02:55:26.394Z,85
2023-01-15T02:56:33.480Z,85
2023-01-15T02:57:40.650Z,85
2023-01-15T02:58:47.192Z,85
2023-01-15T02:59:54.277Z,84
2023-01-15T03:01:01.510Z,84
2023-01-15T03:02:08.614Z,84
2023-01-15T03:03:15.599Z,84
2023-01-15T03:04:22.191Z,84
2023-01-15T03:05:29.268Z,84
2023-01-15T03:06:36.410Z,84
2023-01-15T03:07:43.530Z,84
2023-01-15T03:08:50.623Z,84
2023-01-15T03:09:57.186Z,84
2023-01-15T03:11:04.320Z,83
2023-01-15T03:12:11.437Z,84
2023-01-15T03:13:18.519Z,83
2023-01-15T03:15:32.148Z,83
2023-01-15T03:16:39.570Z,83
2023-01-15T03:17:46.428Z,83
2023-01-15T03:18:53.515Z,83
2023-01-15T03:20:00.627Z,83
2023-01-15T03:22:14.382Z,83
2023-01-15T03:23:21.353Z,83
2023-01-15T03:24:28.519Z,83
2023-01-15T03:25:35.632Z,83
2023-01-15T03:26:42.207Z,83
2023-01-15T03:27:49.352Z,83
2023-01-15T03:28:56.421Z,83
2023-01-15T03:30:03.528Z,83
2023-01-15T03:31:10.629Z,83
2023-01-15T03:32:17.251Z,83
2023-01-15T03:33:24.369Z,83
2023-01-15T03:34:31.390Z,83
2023-01-15T03:35:38.556Z,83
2023-01-15T03:36:45.618Z,83
2023-01-15T03:37:52.288Z,83
2023-01-15T03:38:59.368Z,82
2023-01-15T03:41:13.614Z,82
2023-01-15T03:42:20.703Z,82
2023-01-15T03:43:27.263Z,82
2023-01-15T03:44:34.350Z,82
2023-01-15T03:45:41.435Z,82
2023-01-15T03:46:48.530Z,82
2023-01-15T03:47:55.696Z,82
2023-01-15T03:49:02.239Z,82
2023-01-15T03:50:09.375Z,82
2023-01-15T03:51:16.474Z,82
2023-01-15T03:52:23.684Z,82
2023-01-15T03:53:30.639Z,82
2023-01-15T03:54:37.253Z,82
2023-01-15T03:56:51.429Z,82
2023-01-15T03:57:58.632Z,82
2023-01-15T03:59:05.705Z,81
2023-01-15T04:00:12.215Z,82
2023-01-15T04:01:19.507Z,82
2023-01-15T04:02:26.551Z,82
2023-01-15T04:03:33.527Z,81
2023-01-15T04:04:40.681Z,81
2023-01-15T04:05:47.301Z,81
2023-01-15T04:06:54.350Z,81
2023-01-15T04:08:01.450Z,81
2023-01-15T04:09:08.580Z,81
2023-01-15T04:10:15.709Z,81
2023-01-15T04:11:22.209Z,81
2023-01-15T04:12:29.446Z,81
2023-01-15T04:13:36.505Z,81
2023-01-15T04:14:43.566Z,81
2023-01-15T04:15:50.182Z,81
2023-01-15T04:16:57.778Z,81
2023-01-15T04:18:04.391Z,81
2023-01-15T04:19:11.484Z,81
2023-01-15T04:20:21.645Z,81
2023-01-15T04:21:25.165Z,81
2023-01-15T04:22:32.329Z,81
2023-01-15T04:23:39.390Z,81
2023-01-15T04:25:53.619Z,81
2023-01-15T04:27:00.207Z,81
2023-01-15T04:28:07.407Z,81
2023-01-15T04:29:14.458Z,81
2023-01-15T04:30:21.686Z,81
2023-01-15T04:31:28.604Z,81
2023-01-15T04:32:35.221Z,81
2023-01-15T04:33:42.285Z,81
2023-01-15T04:34:49.443Z,81
2023-01-15T04:35:56.498Z,81
2023-01-15T04:38:10.269Z,81
2023-01-15T04:39:17.329Z,81
2023-01-15T04:40:24.489Z,81
2023-01-15T04:41:31.527Z,81
2023-01-15T04:42:38.633Z,81
2023-01-15T04:43:45.738Z,81
2023-01-15T04:44:52.282Z,81
2023-01-15T04:45:59.541Z,81
2023-01-15T04:47:06.509Z,80
2023-01-15T04:48:13.673Z,80
2023-01-15T04:49:20.232Z,80
2023-01-15T04:50:27.356Z,80
2023-01-15T04:51:34.429Z,80
2023-01-15T04:52:41.510Z,80
2023-01-15T04:53:48.676Z,80
2023-01-15T04:54:55.169Z,80
2023-01-15T04:56:02.295Z,80
2023-01-15T04:57:09.527Z,80
2023-01-15T04:58:16.522Z,80
2023-01-15T04:59:23.650Z,80
2023-01-15T05:00:30.271Z,80
2023-01-15T05:01:37.588Z,80
2023-01-15T05:02:44.548Z,80
2023-01-15T05:03:51.551Z,81
2023-01-15T05:04:58.645Z,81
2023-01-15T05:06:05.364Z,81
2023-01-15T05:07:12.293Z,81
2023-01-15T05:09:26.544Z,81
2023-01-15T05:10:33.641Z,81
2023-01-15T05:11:40.312Z,81
2023-01-15T05:12:47.432Z,81
2023-01-15T05:13:54.440Z,81
2023-01-15T05:15:01.560Z,81
2023-01-15T05:16:08.705Z,81
2023-01-15T05:17:15.269Z,81
2023-01-15T05:18:22.308Z,81
2023-01-15T05:19:29.448Z,81
2023-01-15T05:20:36.590Z,81
2023-01-15T05:21:43.683Z,81
2023-01-15T05:22:50.351Z,81
2023-01-15T05:23:57.400Z,81
2023-01-15T05:25:04.490Z,81
2023-01-15T05:26:11.555Z,81
2023-01-15T05:27:18.745Z,81
2023-01-15T05:29:32.361Z,81
2023-01-15T05:30:39.521Z,81
2023-01-15T05:31:46.624Z,81
2023-01-15T05:32:53.713Z,81
2023-01-15T05:34:00.295Z,81
2023-01-15T05:35:07.433Z,81
2023-01-15T05:36:14.474Z,81
2023-01-15T05:37:21.627Z,81
2023-01-15T05:38:28.682Z,81
2023-01-15T05:39:35.312Z,81
2023-01-15T05:40:42.390Z,81
2023-01-15T05:41:49.609Z,81
2023-01-15T05:42:56.724Z,82
2023-01-15T05:44:03.663Z,82
2023-01-15T05:45:10.805Z,82
2023-01-15T05:46:17.489Z,82
2023-01-15T05:47:24.997Z,82
2023-01-15T05:48:31.608Z,82
2023-01-15T05:49:38.753Z,82
2023-01-15T05:50:45.330Z,83
2023-01-15T05:51:52.415Z,83
2023-01-15T05:52:59.529Z,83
2023-01-15T05:54:06.591Z,83
2023-01-15T05:55:13.743Z,83
2023-01-15T05:56:20.275Z,83
2023-01-15T05:57:27.437Z,83
2023-01-15T05:58:34.501Z,84
2023-01-15T05:59:41.583Z,84
2023-01-15T06:00:48.196Z,84
2023-01-15T06:01:55.367Z,84
2023-01-15T06:03:02.606Z,84
2023-01-15T06:04:09.533Z,84
2023-01-15T06:05:16.785Z,84
2023-01-15T06:06:23.240Z,84
2023-01-15T06:07:30.391Z,84
2023-01-15T06:08:37.381Z,84
2023-01-15T06:09:44.507Z,84
2023-01-15T06:10:51.588Z,84
2023-01-15T06:11:58.262Z,84
2023-01-15T06:13:05.364Z,84
2023-01-15T06:14:12.440Z,84
2023-01-15T06:15:19.570Z,84
2023-01-15T06:16:26.661Z,84
2023-01-15T06:17:33.288Z,84
2023-01-15T06:18:40.357Z,84
2023-01-15T06:19:47.454Z,85
2023-01-15T06:20:54.570Z,84
2023-01-15T06:22:01.682Z,85
2023-01-15T06:23:08.330Z,84
2023-01-15T06:24:15.378Z,84
2023-01-15T06:25:22.402Z,84
2023-01-15T06:26:29.571Z,84
2023-01-15T06:27:36.682Z,84
2023-01-15T06:28:43.190Z,84
2023-01-15T06:29:50.382Z,84
2023-01-15T06:30:57.586Z,84
2023-01-15T06:33:11.680Z,83
2023-01-15T06:34:18.210Z,83
2023-01-15T06:35:25.347Z,83
2023-01-15T06:37:39.593Z,83
2023-01-15T06:38:46.696Z,82
2023-01-15T06:39:53.251Z,82
2023-01-15T06:41:00.399Z,82
2023-01-15T06:42:07.493Z,82
2023-01-15T06:43:14.653Z,82
2023-01-15T06:44:21.674Z,82
2023-01-15T06:45:28.276Z,82
2023-01-15T06:46:35.379Z,82
2023-01-15T06:47:42.505Z,82
2023-01-15T06:48:49.661Z,82
2023-01-15T06:49:56.726Z,82
2023-01-15T06:51:03.785Z,81
2023-01-15T06:52:10.352Z,81
2023-01-15T06:53:17.456Z,81
2023-01-15T06:54:24.618Z,81
2023-01-15T06:55:31.660Z,81
2023-01-15T06:56:38.289Z,81
2023-01-15T06:57:45.458Z,81
2023-01-15T06:58:52.487Z,81
2023-01-15T06:59:59.608Z,81
2023-01-15T07:01:06.861Z,81
2023-01-15T07:02:13.325Z,81
2023-01-15T07:03:20.445Z,81
2023-01-15T07:04:27.529Z,81
2023-01-15T07:05:34.584Z,81
2023-01-15T07:06:41.706Z,80
2023-01-15T07:07:48.425Z,80
2023-01-15T07:08:55.403Z,80
2023-01-15T07:10:02.537Z,80
2023-01-15T07:11:09.676Z,80
2023-01-15T07:12:16.745Z,80
2023-01-15T07:13:23.831Z,80
2023-01-15T07:14:30.433Z,80
2023-01-15T07:15:37.567Z,79
2023-01-15T07:16:44.643Z,80
2023-01-15T07:17:51.726Z,80
2023-01-15T07:18:58.339Z,80
2023-01-15T07:20:05.411Z,80
2023-01-15T07:21:12.493Z,80
2023-01-15T07:22:19.693Z,80
2023-01-15T07:23:26.239Z,80
2023-01-15T07:24:33.277Z,80
2023-01-15T07:25:40.417Z,80
2023-01-15T07:26:47.534Z,80
2023-01-15T07:27:54.712Z,80
2023-01-15T07:29:01.221Z,80
2023-01-15T07:30:08.348Z,80
2023-01-15T07:31:15.485Z,80
2023-01-15T07:32:22.589Z,79
2023-01-15T07:33:29.671Z,79
2023-01-15T07:34:36.775Z,79
2023-01-15T07:36:50.389Z,79
2023-01-15T07:37:57.621Z,79
2023-01-15T07:39:04.690Z,79
2023-01-15T07:40:11.271Z,79
2023-01-15T07:41:18.397Z,79
2023-01-15T07:42:25.591Z,79
2023-01-15T07:43:32.557Z,79
2023-01-15T07:44:39.689Z,80
2023-01-15T07:45:46.370Z,80
2023-01-15T07:46:53.464Z,80
2023-01-15T07:48:00.456Z,80
2023-01-15T07:49:07.585Z,80
2023-01-15T07:50:14.676Z,80
2023-01-15T07:51:21.213Z,80
2023-01-15T07:52:28.403Z,80
2023-01-15T07:53:35.493Z,80
2023-01-15T07:54:42.527Z,80
2023-01-15T07:55:49.718Z,80
2023-01-15T07:56:56.277Z,80
2023-01-15T07:58:03.365Z,80
2023-01-15T07:59:10.424Z,80
2023-01-15T08:00:17.563Z,80
2023-01-15T08:01:24.795Z,80
2023-01-15T08:02:31.281Z,80
2023-01-15T08:03:38.420Z,80
2023-01-15T08:04:45.500Z,80
2023-01-15T08:05:52.572Z,80
2023-01-15T08:06:59.712Z,80
2023-01-15T08:08:06.310Z,80
2023-01-15T08:09:13.375Z,80
2023-01-15T08:10:21.864Z,80
2023-01-15T08:11:27.615Z,80
2023-01-15T08:12:34.717Z,80
2023-01-15T08:13:41.236Z,80
2023-01-15T08:14:48.405Z,80
2023-01-15T08:15:55.520Z,80
2023-01-15T08:17:02.723Z,80
2023-01-15T08:18:09.793Z,80
2023-01-15T08:19:16.237Z,80
2023-01-15T08:20:23.376Z,80
2023-01-15T08:21:29.987Z,80
2023-01-15T08:22:37.656Z,80
2023-01-15T08:23:44.733Z,80
2023-01-15T08:24:51.299Z,80
2023-01-15T08:25:58.406Z,80
2023-01-15T08:27:05.491Z,80
2023-01-15T08:28:12.569Z,81
2023-01-15T08:29:19.756Z,81
2023-01-15T08:30:26.421Z,81
2023-01-15T08:31:33.505Z,81
2023-01-15T08:32:40.558Z,81
2023-01-15T08:33:47.600Z,81
2023-01-15T08:34:54.712Z,81
2023-01-15T08:36:01.298Z,81
2023-01-15T08:37:08.442Z,81
2023-01-15T08:38:15.628Z,81
2023-01-15T08:40:29.732Z,81
2023-01-15T08:42:43.448Z,81
2023-01-15T08:43:50.530Z,81
2023-01-15T08:44:57.665Z,81
2023-01-15T08:46:04.841Z,81
2023-01-15T08:47:11.315Z,81
2023-01-15T08:48:18.504Z,81
2023-01-15T08:49:25.532Z,81
2023-01-15T08:50:32.650Z,81
2023-01-15T08:51:39.781Z,81
2023-01-15T08:52:46.400Z,81
2023-01-15T08:53:53.482Z,82
2023-01-15T08:55:00.568Z,82
2023-01-15T08:56:07.698Z,82
2023-01-15T08:57:14.230Z,82
2023-01-15T08:58:21.826Z,82
2023-01-15T08:59:28.442Z,82
2023-01-15T09:00:35.569Z,82
2023-01-15T09:01:42.842Z,82
2023-01-15T09:02:50.349Z,81
2023-01-15T09:03:56.371Z,81
2023-01-15T09:05:03.648Z,81
2023-01-15T09:06:10.568Z,81
2023-01-15T09:07:17.755Z,81
2023-01-15T09:08:24.312Z,81
2023-01-15T09:09:31.343Z,81
2023-01-15T09:10:38.475Z,81
2023-01-15T09:11:45.554Z,81
2023-01-15T09:12:52.693Z,81
2023-01-15T09:13:59.284Z,81
2023-01-15T09:15:06.412Z,81
2023-01-15T09:16:13.485Z,81
2023-01-15T09:17:20.568Z,81
2023-01-15T09:18:27.717Z,81
2023-01-15T09:19:34.291Z,81
2023-01-15T09:20:41.322Z,81
2023-01-15T09:21:48.476Z,81
2023-01-15T09:22:55.615Z,81
2023-01-15T09:24:02.693Z,81
2023-01-15T09:25:09.830Z,81
2023-01-15T09:26:16.415Z,81
2023-01-15T09:27:23.491Z,81
2023-01-15T09:28:30.641Z,81
2023-01-15T09:29:37.728Z,81
2023-01-15T09:30:44.299Z,81
2023-01-15T09:31:51.380Z,81
2023-01-15T09:32:58.616Z,81
2023-01-15T09:34:05.630Z,81
2023-01-15T09:35:12.699Z,81
2023-01-15T09:36:19.277Z,81
2023-01-15T09:37:26.409Z,81
2023-01-15T09:38:33.583Z,81
2023-01-15T09:39:40.628Z,81
2023-01-15T09:40:47.746Z,81
2023-01-15T09:41:55.385Z,81
2023-01-15T09:44:08.141Z,81
2023-01-15T09:45:15.634Z,81
2023-01-15T09:46:22.784Z,81
2023-01-15T09:47:29.307Z,81
2023-01-15T09:48:36.388Z,81
2023-01-15T09:49:43.581Z,81
2023-01-15T09:50:50.610Z,80
2023-01-15T09:51:57.749Z,80
2023-01-15T09:53:04.297Z,80
2023-01-15T09:54:11.420Z,80
2023-01-15T09:55:18.603Z,80
2023-01-15T09:56:25.615Z,80
2023-01-15T09:57:32.735Z,80
2023-01-15T09:58:39.332Z,80
2023-01-15T09:59:46.440Z,80
2023-01-15T10:00:53.593Z,80
2023-01-15T10:02:00.586Z,80
2023-01-15T10:03:07.863Z,80
2023-01-15T10:04:14.437Z,80
2023-01-15T10:05:21.437Z,80
2023-01-15T10:06:28.627Z,80
2023-01-15T10:07:35.642Z,80
2023-01-15T10:08:42.703Z,80
2023-01-15T10:10:56.476Z,80
2023-01-15T10:12:03.618Z,80
2023-01-15T10:13:10.658Z,80
2023-01-15T10:14:17.772Z,80
2023-01-15T10:15:24.407Z,80
2023-01-15T10:16:31.474Z,80
2023-01-15T10:17:38.627Z,80
2023-01-15T10:18:45.612Z,80
2023-01-15T10:19:52.779Z,81
2023-01-15T10:20:59.381Z,81
2023-01-15T10:22:06.483Z,81
2023-01-15T10:23:13.614Z,81
2023-01-15T10:24:20.669Z,81
2023-01-15T10:25:27.811Z,81
2023-01-15T10:26:34.363Z,81
2023-01-15T10:27:41.521Z,82
2023-01-15T10:28:48.570Z,82
2023-01-15T10:31:02.841Z,82
2023-01-15T10:32:09.403Z,82
2023-01-15T10:33:16.506Z,82
2023-01-15T10:34:23.541Z,82
2023-01-15T10:35:30.671Z,82
2023-01-15T10:36:37.822Z,82
2023-01-15T10:37:44.433Z,82
2023-01-15T10:38:51.475Z,82
2023-01-15T10:39:58.628Z,82
2023-01-15T10:41:05.861Z,82
2023-01-15T10:42:12.266Z,82
2023-01-15T10:43:19.435Z,82
2023-01-15T10:44:26.462Z,82
2023-01-15T10:45:33.547Z,83
2023-01-15T10:46:40.731Z,83
2023-01-15T10:47:47.881Z,83
2023-01-15T10:48:54.411Z,83
2023-01-15T10:50:01.457Z,83
2023-01-15T10:51:08.638Z,83
2023-01-15T10:52:15.709Z,83
2023-01-15T10:53:22.932Z,83
2023-01-15T10:54:29.419Z,83
2023-01-15T10:55:36.503Z,83
2023-01-15T10:56:43.592Z,83
2023-01-15T10:58:57.284Z,84
2023-01-15T11:00:04.423Z,84
2023-01-15T11:01:11.653Z,83
2023-01-15T11:02:18.756Z,83
2023-01-15T11:03:25.793Z,83
2023-01-15T11:04:32.312Z,83
2023-01-15T11:06:46.523Z,83
2023-01-15T11:08:26.444Z,83
2023-01-15T11:09:09.688Z,83
2023-01-15T11:10:07.295Z,83
2023-01-15T11:11:14.417Z,83
2023-01-15T11:12:21.539Z,83
2023-01-15T11:13:28.716Z,83
2023-01-15T11:14:35.734Z,83
2023-01-15T11:15:42.296Z,83
2023-01-15T11:16:49.442Z,83
2023-01-15T11:17:56.714Z,83
2023-01-15T11:19:03.710Z,82
2023-01-15T11:20:10.768Z,82
2023-01-15T11:21:17.349Z,82
2023-01-15T11:22:24.421Z,82
2023-01-15T11:23:31.531Z,82
2023-01-15T11:24:38.720Z,82
2023-01-15T11:26:52.343Z,82
2023-01-15T11:27:59.479Z,82
2023-01-15T11:29:06.596Z,82
2023-01-15T11:30:13.711Z,82
2023-01-15T11:31:20.838Z,82
2023-01-15T11:32:27.331Z,81
2023-01-15T11:33:34.470Z,81
2023-01-15T11:34:41.551Z,81
2023-01-15T11:35:48.760Z,81
2023-01-15T11:36:55.782Z,81
2023-01-15T11:39:09.482Z,80
2023-01-15T11:40:16.596Z,80
2023-01-15T11:41:23.721Z,80
2023-01-15T11:42:30.747Z,80
2023-01-15T11:43:37.317Z,80
2023-01-15T11:44:44.498Z,80
2023-01-15T11:45:51.555Z,80
2023-01-15T11:46:58.723Z,80
2023-01-15T11:48:05.253Z,80
2023-01-15T11:49:12.317Z,80
2023-01-15T11:50:21.874Z,80
2023-01-15T11:51:26.616Z,80
2023-01-15T11:52:33.731Z,79
2023-01-15T11:53:40.791Z,79
2023-01-15T11:54:47.455Z,79
2023-01-15T11:55:54.446Z,79
2023-01-15T11:57:01.602Z,80
2023-01-15T11:58:08.715Z,80
2023-01-15T11:59:15.807Z,80
2023-01-15T12:00:22.349Z,80
2023-01-15T12:01:29.550Z,80
2023-01-15T12:02:36.642Z,80
2023-01-15T12:03:43.908Z,80
2023-01-15T12:04:50.834Z,80
2023-01-15T12:05:57.415Z,80
2023-01-15T12:07:04.542Z,80
2023-01-15T12:08:11.589Z,80
2023-01-15T12:10:25.862Z,80
2023-01-15T12:11:32.399Z,80
2023-01-15T12:12:39.548Z,80
2023-01-15T12:13:46.647Z,80
2023-01-15T12:14:53.708Z,80
2023-01-15T12:16:00.289Z,80
2023-01-15T12:17:07.386Z,80
2023-01-15T12:18:14.516Z,80
2023-01-15T12:19:21.602Z,80
2023-01-15T12:20:28.771Z,81
2023-01-15T12:21:35.295Z,81
2023-01-15T12:22:42.420Z,81
2023-01-15T12:23:49.556Z,81
2023-01-15T12:24:56.631Z,81
2023-01-15T12:26:03.685Z,81
2023-01-15T12:27:10.344Z,81
2023-01-15T12:28:17.500Z,81
2023-01-15T12:29:24.006Z,81
2023-01-15T12:30:31.623Z,81
2023-01-15T12:31:38.824Z,81
2023-01-15T12:32:45.358Z,81
2023-01-15T12:33:52.376Z,81
2023-01-15T12:34:59.586Z,82
2023-01-15T12:36:06.632Z,82
2023-01-15T12:37:13.699Z,82
2023-01-15T12:38:20.413Z,82
2023-01-15T12:39:27.486Z,82
2023-01-15T12:40:34.561Z,82
2023-01-15T12:41:41.655Z,82
2023-01-15T12:42:48.833Z,82
2023-01-15T12:43:55.378Z,82
2023-01-15T12:45:02.450Z,82
2023-01-15T12:46:09.551Z,83
2023-01-15T12:47:16.652Z,83
2023-01-15T12:48:23.709Z,83
2023-01-15T12:49:30.341Z,83
2023-01-15T12:50:37.485Z,83
2023-01-15T12:51:44.600Z,83
2023-01-15T12:52:51.670Z,83
2023-01-15T12:53:58.794Z,84
2023-01-15T12:55:05.377Z,84
2023-01-15T12:57:19.592Z,84
2023-01-15T12:58:26.675Z,84
2023-01-15T12:59:33.765Z,84
2023-01-15T13:00:40.395Z,84
2023-01-15T13:01:47.735Z,84
2023-01-15T13:02:54.629Z,84
2023-01-15T13:04:01.628Z,84
2023-01-15T13:05:08.803Z,84
2023-01-15T13:07:22.494Z,84
2023-01-15T13:08:29.675Z,84
2023-01-15T13:09:36.685Z,84
2023-01-15T13:10:43.806Z,84
2023-01-15T13:11:50.345Z,84
2023-01-15T13:14:04.622Z,84
2023-01-15T13:15:11.664Z,84
2023-01-15T13:16:18.865Z,84
2023-01-15T13:17:25.428Z,84
2023-01-15T13:18:32.499Z,84
2023-01-15T13:19:39.627Z,84
2023-01-15T13:20:46.773Z,84
2023-01-15T13:21:53.794Z,84
2023-01-15T13:23:00.447Z,84
2023-01-15T13:25:14.634Z,84
2023-01-15T13:26:21.679Z,84
2023-01-15T13:27:28.820Z,84
2023-01-15T13:28:35.385Z,84
2023-01-15T13:29:42.517Z,84
2023-01-15T13:30:49.643Z,84
2023-01-15T13:31:56.769Z,84
2023-01-15T13:33:03.846Z,84
2023-01-15T13:34:10.393Z,84
2023-01-15T13:35:17.531Z,84
2023-01-15T13:36:24.636Z,84
2023-01-15T13:37:31.730Z,84
2023-01-15T13:38:38.858Z,85
2023-01-15T13:39:45.408Z,85
2023-01-15T13:40:52.525Z,85
2023-01-15T13:41:59.648Z,85
2023-01-15T13:43:06.772Z,85
2023-01-15T13:44:13.840Z,85
2023-01-15T13:45:20.375Z,85
2023-01-15T13:46:27.537Z,85
2023-01-15T13:47:34.692Z,85
2023-01-15T13:48:43.325Z,85
2023-01-15T13:49:48.876Z,85
2023-01-15T13:50:55.457Z,85
2023-01-15T13:52:02.631Z,85
2023-01-15T13:53:09.663Z,85
2023-01-15T13:54:16.774Z,85
2023-01-15T13:55:23.859Z,85
2023-01-15T13:56:30.397Z,85
2023-01-15T13:57:37.529Z,85
2023-01-15T13:58:44.735Z,85
2023-01-15T13:59:51.720Z,85
2023-01-15T14:00:58.976Z,85
2023-01-15T14:02:05.684Z,85
2023-01-15T14:03:12.677Z,85
2023-01-15T14:04:19.683Z,85
2023-01-15T14:05:26.807Z,85
2023-01-15T14:06:33.851Z,85
2023-01-15T14:07:40.437Z,85
2023-01-15T14:08:47.624Z,86
2023-01-15T14:09:54.650Z,86
2023-01-15T14:11:01.780Z,86
2023-01-15T14:12:08.348Z,86
2023-01-15T14:13:15.534Z,86
2023-01-15T14:14:22.563Z,86
2023-01-15T14:15:29.685Z,86
2023-01-15T14:17:43.360Z,86
2023-01-15T14:18:50.414Z,86
2023-01-15T14:19:57.617Z,86
2023-01-15T14:21:04.711Z,86
2023-01-15T14:22:11.783Z,86
2023-01-15T14:23:18.464Z,86
2023-01-15T14:24:25.452Z,86
2023-01-15T14:25:32.567Z,86
2023-01-15T14:26:39.207Z,86
2023-01-15T14:27:46.813Z,86
2023-01-15T14:28:53.523Z,86
2023-01-15T14:30:00.505Z,86
2023-01-15T14:31:07.602Z,86
2023-01-15T14:32:14.677Z,86
2023-01-15T14:33:21.362Z,86
2023-01-15T14:35:35.512Z,86
2023-01-15T14:36:42.567Z,86
2023-01-15T14:37:49.770Z,86
2023-01-15T14:38:56.885Z,86
2023-01-15T14:40:03.638Z,86
2023-01-15T14:41:10.470Z,86
2023-01-15T14:42:17.637Z,86
2023-01-15T14:43:24.872Z,86
2023-01-15T14:44:31.785Z,86
2023-01-15T14:45:38.498Z,86
2023-01-15T14:46:45.560Z,86
2023-01-15T14:47:52.666Z,86
2023-01-15T14:48:59.745Z,86
2023-01-15T14:50:06.863Z,86
2023-01-15T14:51:13.399Z,86
2023-01-15T14:52:20.513Z,86
2023-01-15T14:53:27.673Z,86
2023-01-15T14:54:34.727Z,86
2023-01-15T14:55:41.800Z,86
2023-01-15T14:56:48.433Z,86
2023-01-15T14:57:55.542Z,86
2023-01-15T14:59:02.624Z,86
2023-01-15T15:00:09.756Z,86
2023-01-15T15:01:16.942Z,86
2023-01-15T15:02:23.638Z,86
2023-01-15T15:03:30.541Z,86
2023-01-15T15:04:37.624Z,86
2023-01-15T15:05:44.748Z,86
2023-01-15T15:06:51.818Z,86
2023-01-15T15:07:58.512Z,86
2023-01-15T15:09:05.562Z,86
2023-01-15T15:10:12.652Z,86
2023-01-15T15:11:19.744Z,86
2023-01-15T15:12:26.881Z,86
2023-01-15T15:13:33.420Z,85
2023-01-15T15:15:47.690Z,85
2023-01-15T15:16:54.806Z,85
2023-01-15T15:18:01.925Z,85
2023-01-15T15:19:08.474Z,85
2023-01-15T15:21:22.676Z,85
2023-01-15T15:22:29.752Z,85
2023-01-15T15:23:36.897Z,85
2023-01-15T15:24:43.467Z,85
2023-01-15T15:25:50.554Z,85
2023-01-15T15:26:57.653Z,85
2023-01-15T15:28:04.855Z,85
2023-01-15T15:29:11.903Z,85
2023-01-15T15:30:18.517Z,85
2023-01-15T15:31:25.594Z,85
2023-01-15T15:32:32.685Z,85
2023-01-15T15:33:39.825Z,85
2023-01-15T15:34:46.920Z,85
2023-01-15T15:35:53.425Z,85
2023-01-15T15:37:01.564Z,85
2023-01-15T15:38:07.676Z,84
2023-01-15T15:39:14.916Z,84
2023-01-15T15:40:21.973Z,85
2023-01-15T15:41:28.501Z,85
2023-01-15T15:42:35.566Z,84
2023-01-15T15:43:42.805Z,85
2023-01-15T15:44:49.944Z,85
2023-01-15T15:45:56.975Z,85
2023-01-15T15:47:03.504Z,85
2023-01-15T15:48:10.540Z,85
2023-01-15T15:49:17.740Z,85
2023-01-15T15:50:25.048Z,85
2023-01-15T15:51:31.961Z,85
2023-01-15T15:52:38.567Z,85
2023-01-15T15:53:45.544Z,85
2023-01-15T15:54:52.710Z,85
2023-01-15T15:55:59.387Z,85
2023-01-15T15:57:06.954Z,85
2023-01-15T15:58:13.499Z,85
2023-01-15T15:59:20.552Z,86
2023-01-15T16:00:27.697Z,86
2023-01-15T16:01:34.961Z,86
2023-01-15T16:03:48.563Z,86
2023-01-15T16:04:55.591Z,86
2023-01-15T16:06:02.720Z,86
2023-01-15T16:07:09.927Z,86
2023-01-15T16:08:16.959Z,86
2023-01-15T16:09:23.505Z,86
2023-01-15T16:10:30.638Z,86
2023-01-15T16:11:37.727Z,86
2023-01-15T16:12:44.933Z,86
2023-01-15T16:13:51.894Z,86
2023-01-15T16:14:58.507Z,86
2023-01-15T16:16:05.952Z,86
2023-01-15T16:17:12.744Z,86
2023-01-15T16:18:19.836Z,86
2023-01-15T16:19:26.432Z,86
2023-01-15T16:20:33.521Z,86
2023-01-15T16:21:40.589Z,86
2023-01-15T16:22:47.736Z,86
2023-01-15T16:25:01.432Z,86
2023-01-15T16:26:08.572Z,86
2023-01-15T16:27:15.666Z,86
2023-01-15T16:28:22.818Z,86
2023-01-15T16:29:29.882Z,86
2023-01-15T16:30:36.429Z,86
2023-01-15T16:31:43.535Z,86
2023-01-15T16:32:50.660Z,86
2023-01-15T16:33:57.897Z,86
2023-01-15T16:35:04.835Z,86
2023-01-15T16:36:11.457Z,86
2023-01-15T16:37:18.570Z,86